sensor_id;sensor_type;location;lat;lon;timestamp;pressure;altitude;pressure_sealevel;temperature;humidity
56514;BME280;62152;52.078;8.414;2023-02-13T00:03:52;102317.59;;;17.02;58.46
56514;BME280;62152;52.078;8.414;2023-02-13T00:07:54;102314.03;;;17.01;58.15
56514;BME280;62152;52.078;8.414;2023-02-13T00:11:55;102318.72;;;17.01;58.30
56514;BME280;62152;52.078;8.414;2023-02-13T00:15:57;102316.78;;;17.01;58.31
56514;BME280;62152;52.078;8.414;2023-02-13T00:19:59;102313.25;;;17.01;58.48
56514;BME280;62152;52.078;8.414;2023-02-13T00:24:02;102305.66;;;16.98;58.77
56514;BME280;62152;52.078;8.414;2023-02-13T00:28:03;102316.59;;;16.98;58.58
56514;BME280;62152;52.078;8.414;2023-02-13T00:32:04;102313.56;;;16.99;58.03
56514;BME280;62152;52.078;8.414;2023-02-13T00:36:08;102315.47;;;16.99;58.28
56514;BME280;62152;52.078;8.414;2023-02-13T00:40:13;102306.75;;;16.97;58.77
56514;BME280;62152;52.078;8.414;2023-02-13T00:44:14;102310.31;;;16.97;58.52
56514;BME280;62152;52.078;8.414;2023-02-13T00:48:15;102306.44;;;16.98;58.52
56514;BME280;62152;52.078;8.414;2023-02-13T00:52:16;102309.50;;;16.97;58.28
56514;BME280;62152;52.078;8.414;2023-02-13T00:56:37;102302.09;;;16.97;58.57
56514;BME280;62152;52.078;8.414;2023-02-13T01:00:39;102300.47;;;16.96;58.03
56514;BME280;62152;52.078;8.414;2023-02-13T01:04:40;102307.88;;;16.95;58.00
56514;BME280;62152;52.078;8.414;2023-02-13T01:08:41;102299.66;;;16.95;58.11
56514;BME280;62152;52.078;8.414;2023-02-13T01:12:44;102311.72;;;16.94;57.90
56514;BME280;62152;52.078;8.414;2023-02-13T01:16:44;102296.13;;;16.95;57.97
56514;BME280;62152;52.078;8.414;2023-02-13T01:20:55;102311.72;;;16.94;58.25
56514;BME280;62152;52.078;8.414;2023-02-13T01:24:57;102296.41;;;16.93;58.28
56514;BME280;62152;52.078;8.414;2023-02-13T01:29:03;102301.06;;;16.93;58.12
56514;BME280;62152;52.078;8.414;2023-02-13T01:33:04;102291.22;;;16.92;57.84
56514;BME280;62152;52.078;8.414;2023-02-13T01:37:05;102283.50;;;16.94;58.14
56514;BME280;62152;52.078;8.414;2023-02-13T01:41:06;102288.19;;;16.93;57.98
56514;BME280;62152;52.078;8.414;2023-02-13T01:45:24;102285.75;;;16.92;57.81
56514;BME280;62152;52.078;8.414;2023-02-13T01:49:26;102286.56;;;16.92;58.24
56514;BME280;62152;52.078;8.414;2023-02-13T01:53:32;102287.38;;;16.93;57.82
56514;BME280;62152;52.078;8.414;2023-02-13T01:57:40;102280.25;;;16.92;57.75
56514;BME280;62152;52.078;8.414;2023-02-13T02:01:50;102287.38;;;16.93;58.00
56514;BME280;62152;52.078;8.414;2023-02-13T02:05:55;102280.25;;;16.92;57.63
56514;BME280;62152;52.078;8.414;2023-02-13T02:10:02;102277.84;;;16.90;57.99
56514;BME280;62152;52.078;8.414;2023-02-13T02:14:06;102274.78;;;16.92;58.15
56514;BME280;62152;52.078;8.414;2023-02-13T02:18:14;102271.22;;;16.91;57.76
56514;BME280;62152;52.078;8.414;2023-02-13T02:27:38;102275.91;;;16.91;57.84
56514;BME280;62152;52.078;8.414;2023-02-13T02:32:25;102272.34;;;16.90;58.21
56514;BME280;62152;52.078;8.414;2023-02-13T02:36:54;102283.31;;;16.90;58.21
56514;BME280;62152;52.078;8.414;2023-02-13T02:41:11;102264.44;;;16.89;57.69
56514;BME280;62152;52.078;8.414;2023-02-13T02:45:25;102264.94;;;16.91;57.60
56514;BME280;62152;52.078;8.414;2023-02-13T02:49:39;102266.88;;;16.90;57.52
56514;BME280;62152;52.078;8.414;2023-02-13T02:54:00;102258.16;;;16.88;57.54
56514;BME280;62152;52.078;8.414;2023-02-13T02:58:12;102258.97;;;16.89;57.49
56514;BME280;62152;52.078;8.414;2023-02-13T03:02:21;102246.06;;;16.89;57.38
56514;BME280;62152;52.078;8.414;2023-02-13T03:06:31;102238.13;;;16.88;57.92
56514;BME280;62152;52.078;8.414;2023-02-13T03:10:37;102237.03;;;16.89;58.09
56514;BME280;62152;52.078;8.414;2023-02-13T03:14:38;102237.03;;;16.89;57.55
56514;BME280;62152;52.078;8.414;2023-02-13T03:18:43;102231.84;;;16.87;57.75
56514;BME280;62152;52.078;8.414;2023-02-13T03:23:02;102231.56;;;16.89;57.69
56514;BME280;62152;52.078;8.414;2023-02-13T03:27:19;102235.38;;;16.88;57.52
56514;BME280;62152;52.078;8.414;2023-02-13T03:31:36;102235.09;;;16.89;57.77
56514;BME280;62152;52.078;8.414;2023-02-13T03:35:52;102231.56;;;16.89;57.99
56514;BME280;62152;52.078;8.414;2023-02-13T03:40:08;102237.03;;;16.89;57.96
56514;BME280;62152;52.078;8.414;2023-02-13T03:44:22;102235.38;;;16.88;57.76
56514;BME280;62152;52.078;8.414;2023-02-13T03:48:33;102237.31;;;16.87;57.50
56514;BME280;62152;52.078;8.414;2023-02-13T03:52:43;102240.88;;;16.88;57.69
56514;BME280;62152;52.078;8.414;2023-02-13T03:56:51;102239.25;;;16.87;57.87
56514;BME280;62152;52.078;8.414;2023-02-13T04:00:57;102239.25;;;16.87;57.43
56514;BME280;62152;52.078;8.414;2023-02-13T04:05:08;102248.28;;;16.87;57.74
56514;BME280;62152;52.078;8.414;2023-02-13T04:09:15;102243.94;;;16.86;57.57
56514;BME280;62152;52.078;8.414;2023-02-13T04:13:25;102242.00;;;16.87;57.70
56514;BME280;62152;52.078;8.414;2023-02-13T04:17:35;102246.97;;;16.85;57.79
56514;BME280;62152;52.078;8.414;2023-02-13T04:21:40;102251.66;;;16.84;57.53
56514;BME280;62152;52.078;8.414;2023-02-13T04:25:44;102251.84;;;16.88;57.54
56514;BME280;62152;52.078;8.414;2023-02-13T04:29:49;102244.75;;;16.87;57.64
56514;BME280;62152;52.078;8.414;2023-02-13T04:33:50;102250.22;;;16.87;57.58
56514;BME280;62152;52.078;8.414;2023-02-13T04:37:51;102249.41;;;16.86;58.06
56514;BME280;62152;52.078;8.414;2023-02-13T04:41:52;102251.34;;;16.86;57.53
56514;BME280;62152;52.078;8.414;2023-02-13T04:45:54;102247.78;;;16.85;57.96
56514;BME280;62152;52.078;8.414;2023-02-13T04:49:55;102243.13;;;16.86;57.37
56514;BME280;62152;52.078;8.414;2023-02-13T04:53:55;102248.59;;;16.86;57.92
56514;BME280;62152;52.078;8.414;2023-02-13T04:57:56;102242.31;;;16.85;57.33
56514;BME280;62152;52.078;8.414;2023-02-13T05:01:58;102237.03;;;16.89;57.81
56514;BME280;62152;52.078;8.414;2023-02-13T05:05:59;102236.63;;;16.95;57.36
56514;BME280;62152;52.078;8.414;2023-02-13T05:10:00;102238.66;;;16.90;57.24
56514;BME280;62152;52.078;8.414;2023-02-13T05:14:01;102238.44;;;16.86;56.78
56514;BME280;62152;52.078;8.414;2023-02-13T05:18:03;102242.31;;;16.85;57.11
56514;BME280;62152;52.078;8.414;2023-02-13T05:22:04;102242.00;;;16.87;56.85
56514;BME280;62152;52.078;8.414;2023-02-13T05:26:05;102244.75;;;16.87;57.14
56514;BME280;62152;52.078;8.414;2023-02-13T05:30:07;102243.44;;;16.84;56.96
56514;BME280;62152;52.078;8.414;2023-02-13T05:34:10;102250.03;;;16.83;56.96
56514;BME280;62152;52.078;8.414;2023-02-13T05:38:10;102253.59;;;16.84;57.12
56514;BME280;62152;52.078;8.414;2023-02-13T05:42:11;102250.84;;;16.84;57.29
56514;BME280;62152;52.078;8.414;2023-02-13T05:46:12;102244.56;;;16.83;56.97
56514;BME280;62152;52.078;8.414;2023-02-13T05:50:15;102244.03;;;16.81;56.78
56514;BME280;62152;52.078;8.414;2023-02-13T05:54:16;102251.97;;;16.83;56.97
56514;BME280;62152;52.078;8.414;2023-02-13T05:58:18;102259.38;;;16.82;57.46
56514;BME280;62152;52.078;8.414;2023-02-13T06:02:19;102260.19;;;16.83;57.21
56514;BME280;62152;52.078;8.414;2023-02-13T06:06:21;102265.69;;;16.83;56.96
56514;BME280;62152;52.078;8.414;2023-02-13T06:10:22;102262.94;;;16.83;57.41
56514;BME280;62152;52.078;8.414;2023-02-13T06:14:23;102260.19;;;16.83;57.37
56514;BME280;62152;52.078;8.414;2023-02-13T06:18:23;102265.69;;;16.83;57.26
56514;BME280;62152;52.078;8.414;2023-02-13T06:22:26;102276.63;;;16.83;57.16
56514;BME280;62152;52.078;8.414;2023-02-13T06:26:27;102271.16;;;16.83;56.98
56514;BME280;62152;52.078;8.414;2023-02-13T06:30:27;102275.03;;;16.82;57.10
56514;BME280;62152;52.078;8.414;2023-02-13T06:34:28;102274.19;;;16.81;57.55
56514;BME280;62152;52.078;8.414;2023-02-13T06:38:31;102275.03;;;16.82;57.14
56514;BME280;62152;52.078;8.414;2023-02-13T06:42:32;102271.44;;;16.81;56.95
56514;BME280;62152;52.078;8.414;2023-02-13T06:46:32;102275.03;;;16.82;57.34
56514;BME280;62152;52.078;8.414;2023-02-13T06:50:34;102287.59;;;16.83;57.40
56514;BME280;62152;52.078;8.414;2023-02-13T06:54:36;102295.00;;;16.82;56.85
56514;BME280;62152;52.078;8.414;2023-02-13T06:58:37;102288.72;;;16.82;56.67
56514;BME280;62152;52.078;8.414;2023-02-13T07:02:38;102291.47;;;16.82;56.96
56514;BME280;62152;52.078;8.414;2023-02-13T07:06:39;102296.94;;;16.82;57.41
56514;BME280;62152;52.078;8.414;2023-02-13T07:10:41;102296.94;;;16.82;57.50
56514;BME280;62152;52.078;8.414;2023-02-13T07:14:42;102298.03;;;16.81;56.79
56514;BME280;62152;52.078;8.414;2023-02-13T07:18:43;102307.91;;;16.82;56.95
56514;BME280;62152;52.078;8.414;2023-02-13T07:22:44;102307.06;;;16.81;56.94
56514;BME280;62152;52.078;8.414;2023-02-13T07:26:46;102306.25;;;16.81;57.13
56514;BME280;62152;52.078;8.414;2023-02-13T07:30:47;102304.63;;;16.80;56.83
56514;BME280;62152;52.078;8.414;2023-02-13T07:34:48;102302.72;;;16.80;57.29
56514;BME280;62152;52.078;8.414;2023-02-13T07:38:49;102308.72;;;16.82;57.00
56514;BME280;62152;52.078;8.414;2023-02-13T07:42:51;102314.47;;;16.81;56.95
56514;BME280;62152;52.078;8.414;2023-02-13T07:46:52;102311.47;;;16.82;56.86
56514;BME280;62152;52.078;8.414;2023-02-13T07:50:53;102313.38;;;16.82;57.03
56514;BME280;62152;52.078;8.414;2023-02-13T07:54:54;102315.00;;;16.83;57.24
56514;BME280;62152;52.078;8.414;2023-02-13T07:58:56;102307.91;;;16.82;57.25
56514;BME280;62152;52.078;8.414;2023-02-13T08:02:58;102307.91;;;16.82;56.54
56514;BME280;62152;52.078;8.414;2023-02-13T08:06:59;102312.56;;;16.81;57.07
56514;BME280;62152;52.078;8.414;2023-02-13T08:11:05;102320.78;;;16.81;57.10
56514;BME280;62152;52.078;8.414;2023-02-13T08:15:11;102317.22;;;16.81;57.07
56514;BME280;62152;52.078;8.414;2023-02-13T08:19:14;102311.47;;;16.82;57.18
56514;BME280;62152;52.078;8.414;2023-02-13T08:23:14;102308.41;;;16.84;56.70
56514;BME280;62152;52.078;8.414;2023-02-13T08:27:15;102315.00;;;16.83;56.84
56514;BME280;62152;52.078;8.414;2023-02-13T08:31:17;102305.66;;;16.84;56.76
56514;BME280;62152;52.078;8.414;2023-02-13T08:35:18;102305.66;;;16.84;56.47
56514;BME280;62152;52.078;8.414;2023-02-13T08:39:20;102311.16;;;16.84;56.75
56514;BME280;62152;52.078;8.414;2023-02-13T08:43:20;102310.03;;;16.85;56.43
56514;BME280;62152;52.078;8.414;2023-02-13T08:47:23;102305.66;;;16.84;56.72
56514;BME280;62152;52.078;8.414;2023-02-13T08:51:23;102311.16;;;16.84;56.92
56514;BME280;62152;52.078;8.414;2023-02-13T08:55:25;102321.28;;;16.83;57.34
56514;BME280;62152;52.078;8.414;2023-02-13T08:59:26;102326.47;;;16.85;56.79
56514;BME280;62152;52.078;8.414;2023-02-13T09:03:30;102322.91;;;16.84;56.56
56514;BME280;62152;52.078;8.414;2023-02-13T09:07:31;102322.91;;;16.84;56.48
56514;BME280;62152;52.078;8.414;2023-02-13T09:11:31;102321.78;;;16.85;57.01
56514;BME280;62152;52.078;8.414;2023-02-13T09:15:33;102325.66;;;16.84;56.67
56514;BME280;62152;52.078;8.414;2023-02-13T09:19:35;102324.53;;;16.85;57.24
56514;BME280;62152;52.078;8.414;2023-02-13T09:23:37;102325.34;;;16.86;56.69
56514;BME280;62152;52.078;8.414;2023-02-13T09:27:38;102319.06;;;16.85;56.86
56514;BME280;62152;52.078;8.414;2023-02-13T09:31:39;102318.25;;;16.85;56.88
56514;BME280;62152;52.078;8.414;2023-02-13T09:35:42;102320.66;;;16.86;56.76
56514;BME280;62152;52.078;8.414;2023-02-13T09:39:42;102315.19;;;16.86;56.71
56514;BME280;62152;52.078;8.414;2023-02-13T09:43:48;102328.59;;;16.88;57.07
56514;BME280;62152;52.078;8.414;2023-02-13T09:47:53;102327.78;;;16.87;56.82
56514;BME280;62152;52.078;8.414;2023-02-13T09:51:56;102321.47;;;16.87;56.42
56514;BME280;62152;52.078;8.414;2023-02-13T09:56:07;102332.44;;;16.87;56.62
56514;BME280;62152;52.078;8.414;2023-02-13T10:00:20;102331.31;;;16.88;56.80
56514;BME280;62152;52.078;8.414;2023-02-13T10:04:44;102325.84;;;16.88;56.42
56514;BME280;62152;52.078;8.414;2023-02-13T10:09:09;102328.59;;;16.88;56.96
56514;BME280;62152;52.078;8.414;2023-02-13T10:13:49;102331.03;;;16.89;56.52
56514;BME280;62152;52.078;8.414;2023-02-13T10:18:04;102328.59;;;16.88;56.69
56514;BME280;62152;52.078;8.414;2023-02-13T10:22:14;102332.16;;;16.88;56.71
56514;BME280;62152;52.078;8.414;2023-02-13T10:26:21;102330.22;;;16.89;56.79
56514;BME280;62152;52.078;8.414;2023-02-13T10:30:29;102335.72;;;16.89;56.49
56514;BME280;62152;52.078;8.414;2023-02-13T10:34:38;102334.91;;;16.88;56.81
56514;BME280;62152;52.078;8.414;2023-02-13T10:38:44;102329.09;;;16.90;56.60
56514;BME280;62152;52.078;8.414;2023-02-13T10:43:07;102329.41;;;16.88;56.91
56514;BME280;62152;52.078;8.414;2023-02-13T10:47:21;102327.19;;;16.90;56.37
56514;BME280;62152;52.078;8.414;2023-02-13T10:51:41;102337.03;;;16.91;56.33
56514;BME280;62152;52.078;8.414;2023-02-13T10:56:21;102324.44;;;16.90;56.65
56514;BME280;62152;52.078;8.414;2023-02-13T11:00:34;102323.31;;;16.91;56.81
56514;BME280;62152;52.078;8.414;2023-02-13T11:04:38;102313.97;;;16.92;56.46
56514;BME280;62152;52.078;8.414;2023-02-13T11:08:45;102318.63;;;16.92;56.74
56514;BME280;62152;52.078;8.414;2023-02-13T11:12:48;102315.91;;;16.92;56.40
56514;BME280;62152;52.078;8.414;2023-02-13T11:16:55;102313.16;;;16.92;56.54
56514;BME280;62152;52.078;8.414;2023-02-13T11:21:01;102303.00;;;16.92;56.88
56514;BME280;62152;52.078;8.414;2023-02-13T11:25:17;102298.34;;;16.93;56.79
56514;BME280;62152;52.078;8.414;2023-02-13T11:29:24;102307.34;;;16.93;56.79
56514;BME280;62152;52.078;8.414;2023-02-13T11:33:27;102305.75;;;16.92;56.67
56514;BME280;62152;52.078;8.414;2023-02-13T11:37:29;102303.81;;;16.93;56.32
56514;BME280;62152;52.078;8.414;2023-02-13T11:41:37;102293.66;;;16.93;56.19
56514;BME280;62152;52.078;8.414;2023-02-13T11:45:40;102295.28;;;16.94;56.13
56514;BME280;62152;52.078;8.414;2023-02-13T11:49:46;102290.63;;;16.95;56.30
56514;BME280;62152;52.078;8.414;2023-02-13T11:53:47;102283.22;;;16.95;56.45
56514;BME280;62152;52.078;8.414;2023-02-13T11:57:56;102287.06;;;16.94;56.83
56514;BME280;62152;52.078;8.414;2023-02-13T12:02:11;102293.06;;;16.97;56.20
56514;BME280;62152;52.078;8.414;2023-02-13T12:06:16;102281.28;;;16.96;56.65
56514;BME280;62152;52.078;8.414;2023-02-13T12:10:22;102284.31;;;16.94;56.77
56514;BME280;62152;52.078;8.414;2023-02-13T12:14:30;102267.56;;;16.96;56.63
56514;BME280;62152;52.078;8.414;2023-02-13T12:18:40;102253.88;;;16.96;56.00
56514;BME280;62152;52.078;8.414;2023-02-13T12:22:58;102245.94;;;16.94;56.34
56514;BME280;62152;52.078;8.414;2023-02-13T12:27:16;102244.03;;;16.95;56.18
56514;BME280;62152;52.078;8.414;2023-02-13T12:31:39;102240.44;;;16.94;56.11
56514;BME280;62152;52.078;8.414;2023-02-13T12:36:00;102239.66;;;16.94;55.91
56514;BME280;62152;52.078;8.414;2023-02-13T12:40:24;102231.41;;;16.94;56.19
56514;BME280;62152;52.078;8.414;2023-02-13T12:44:58;102228.69;;;16.94;56.37
56514;BME280;62152;52.078;8.414;2023-02-13T12:49:28;102224.00;;;16.94;56.60
56514;BME280;62152;52.078;8.414;2023-02-13T12:53:59;102216.91;;;16.93;56.11
56514;BME280;62152;52.078;8.414;2023-02-13T13:03:23;102208.41;;;16.95;56.03
56514;BME280;62152;52.078;8.414;2023-02-13T13:07:52;102199.06;;;16.96;55.96
56514;BME280;62152;52.078;8.414;2023-02-13T13:12:35;102181.00;;;16.95;56.06
56514;BME280;62152;52.078;8.414;2023-02-13T13:16:54;102178.25;;;16.95;56.10
56514;BME280;62152;52.078;8.414;2023-02-13T13:21:13;102175.50;;;16.95;56.47
56514;BME280;62152;52.078;8.414;2023-02-13T13:25:26;102177.13;;;16.96;56.22
56514;BME280;62152;52.078;8.414;2023-02-13T13:29:43;102185.34;;;16.96;56.50
56514;BME280;62152;52.078;8.414;2023-02-13T13:33:49;102174.38;;;16.96;56.01
56514;BME280;62152;52.078;8.414;2023-02-13T13:37:57;102173.84;;;16.94;56.23
56514;BME280;62152;52.078;8.414;2023-02-13T13:42:15;102182.09;;;16.94;56.15
56514;BME280;62152;52.078;8.414;2023-02-13T13:46:34;102177.13;;;16.96;56.57
56514;BME280;62152;52.078;8.414;2023-02-13T13:50:48;102177.13;;;16.96;56.01
56514;BME280;62152;52.078;8.414;2023-02-13T13:54:51;102172.75;;;16.95;56.65
56514;BME280;62152;52.078;8.414;2023-02-13T13:58:53;102172.75;;;16.95;56.28
56514;BME280;62152;52.078;8.414;2023-02-13T14:03:21;102173.84;;;16.94;56.35
56514;BME280;62152;52.078;8.414;2023-02-13T14:07:35;102168.91;;;16.96;56.19
56514;BME280;62152;52.078;8.414;2023-02-13T14:11:40;102163.69;;;16.94;56.18
56514;BME280;62152;52.078;8.414;2023-02-13T14:15:51;102156.31;;;16.95;56.52
56514;BME280;62152;52.078;8.414;2023-02-13T14:19:52;102155.47;;;16.94;56.16
56514;BME280;62152;52.078;8.414;2023-02-13T14:23:57;102160.69;;;16.96;56.18
56514;BME280;62152;52.078;8.414;2023-02-13T14:28:00;102152.75;;;16.94;56.42
56514;BME280;62152;52.078;8.414;2023-02-13T14:32:22;102162.91;;;16.94;56.52
56514;BME280;62152;52.078;8.414;2023-02-13T14:36:33;102156.59;;;16.93;56.53
56514;BME280;62152;52.078;8.414;2023-02-13T14:40:47;102151.94;;;16.94;56.13
56514;BME280;62152;52.078;8.414;2023-02-13T14:44:53;102144.84;;;16.93;56.64
56514;BME280;62152;52.078;8.414;2023-02-13T14:49:02;102147.56;;;16.93;56.16
56514;BME280;62152;52.078;8.414;2023-02-13T14:53:19;102142.09;;;16.93;56.52
56514;BME280;62152;52.078;8.414;2023-02-13T14:57:28;102144.84;;;16.93;56.52
56514;BME280;62152;52.078;8.414;2023-02-13T15:01:36;102150.31;;;16.93;56.70
56514;BME280;62152;52.078;8.414;2023-02-13T15:05:50;102144.03;;;16.92;55.91
56514;BME280;62152;52.078;8.414;2023-02-13T15:09:58;102147.56;;;16.93;56.28
56514;BME280;62152;52.078;8.414;2023-02-13T15:14:20;102138.53;;;16.92;56.14
56514;BME280;62152;52.078;8.414;2023-02-13T15:18:26;102133.88;;;16.93;56.08
56514;BME280;62152;52.078;8.414;2023-02-13T15:22:32;102131.13;;;16.93;56.07
56514;BME280;62152;52.078;8.414;2023-02-13T15:26:36;102131.13;;;16.93;56.09
56514;BME280;62152;52.078;8.414;2023-02-13T15:30:38;102118.53;;;16.92;56.34
56514;BME280;62152;52.078;8.414;2023-02-13T15:34:46;102119.66;;;16.91;56.54
56514;BME280;62152;52.078;8.414;2023-02-13T15:38:47;102118.06;;;16.90;56.89
56514;BME280;62152;52.078;8.414;2023-02-13T15:42:48;102118.06;;;16.90;56.56
56514;BME280;62152;52.078;8.414;2023-02-13T15:46:53;102122.72;;;16.89;56.88
56514;BME280;62152;52.078;8.414;2023-02-13T15:50:57;102126.91;;;17.09;57.92
56514;BME280;62152;52.078;8.414;2023-02-13T15:54:59;102123.72;;;16.93;55.15
56514;BME280;62152;52.078;8.414;2023-02-13T15:59:02;102124.34;;;16.90;55.05
56514;BME280;62152;52.078;8.414;2023-02-13T16:03:10;102125.47;;;16.89;55.27
56514;BME280;62152;52.078;8.414;2023-02-13T16:07:15;102126.59;;;16.88;55.07
56514;BME280;62152;52.078;8.414;2023-02-13T16:11:20;102111.25;;;16.87;55.58
56514;BME280;62152;52.078;8.414;2023-02-13T16:15:28;102111.25;;;16.87;55.21
56514;BME280;62152;52.078;8.414;2023-02-13T16:19:40;102099.47;;;16.87;55.21
56514;BME280;62152;52.078;8.414;2023-02-13T16:23:57;102098.34;;;16.88;55.77
56514;BME280;62152;52.078;8.414;2023-02-13T16:28:04;102104.16;;;16.86;55.42
56514;BME280;62152;52.078;8.414;2023-02-13T16:32:24;102093.19;;;16.86;55.21
56514;BME280;62152;52.078;8.414;2023-02-13T16:36:28;102100.59;;;16.86;55.17
56514;BME280;62152;52.078;8.414;2023-02-13T16:40:34;102100.59;;;16.86;55.82
56514;BME280;62152;52.078;8.414;2023-02-13T16:44:37;102101.72;;;16.85;55.82
56514;BME280;62152;52.078;8.414;2023-02-13T16:48:38;102114.63;;;16.84;55.76
56514;BME280;62152;52.078;8.414;2023-02-13T16:52:41;102124.78;;;16.84;55.42
56514;BME280;62152;52.078;8.414;2023-02-13T16:56:45;102123.66;;;16.85;56.12
56514;BME280;62152;52.078;8.414;2023-02-13T17:00:49;102127.53;;;16.84;55.95
56514;BME280;62152;52.078;8.414;2023-02-13T17:04:53;102135.75;;;16.84;55.59
56514;BME280;62152;52.078;8.414;2023-02-13T17:08:56;102128.66;;;16.83;55.89
56514;BME280;62152;52.078;8.414;2023-02-13T17:12:59;102134.94;;;16.83;56.42
56514;BME280;62152;52.078;8.414;2023-02-13T17:17:01;102138.47;;;16.84;55.90
56514;BME280;62152;52.078;8.414;2023-02-13T17:21:02;102145.09;;;16.83;56.34
56514;BME280;62152;52.078;8.414;2023-02-13T17:25:10;102147.84;;;16.83;56.30
56514;BME280;62152;52.078;8.414;2023-02-13T17:29:16;102153.81;;;16.85;56.46
56514;BME280;62152;52.078;8.414;2023-02-13T17:33:21;102153.81;;;16.85;55.91
56514;BME280;62152;52.078;8.414;2023-02-13T17:37:25;102159.81;;;17.09;56.44
56514;BME280;62152;52.078;8.414;2023-02-13T17:41:28;102149.75;;;17.05;56.49
56514;BME280;62152;52.078;8.414;2023-02-13T17:45:32;102142.59;;;16.95;56.59
56514;BME280;62152;52.078;8.414;2023-02-13T17:49:34;102143.59;;;16.99;56.96
56514;BME280;62152;52.078;8.414;2023-02-13T17:53:35;102133.88;;;16.93;56.54
56514;BME280;62152;52.078;8.414;2023-02-13T17:57:37;102129.03;;;16.90;57.31
56514;BME280;62152;52.078;8.414;2023-02-13T18:01:38;102137.03;;;16.86;57.34
56514;BME280;62152;52.078;8.414;2023-02-13T18:05:39;102129.63;;;16.87;57.21
56514;BME280;62152;52.078;8.414;2023-02-13T18:09:40;102128.81;;;16.86;57.14
56514;BME280;62152;52.078;8.414;2023-02-13T18:13:43;102130.25;;;16.84;57.21
56514;BME280;62152;52.078;8.414;2023-02-13T18:17:44;102132.69;;;16.85;56.85
56514;BME280;62152;52.078;8.414;2023-02-13T18:21:45;102135.44;;;16.85;56.85
56514;BME280;62152;52.078;8.414;2023-02-13T18:25:46;102131.88;;;16.85;57.33
56514;BME280;62152;52.078;8.414;2023-02-13T18:29:48;102122.84;;;16.84;57.35
56514;BME280;62152;52.078;8.414;2023-02-13T18:33:49;102124.47;;;16.85;57.43
56514;BME280;62152;52.078;8.414;2023-02-13T18:37:50;102131.88;;;16.85;57.36
56514;BME280;62152;52.078;8.414;2023-02-13T18:41:51;102127.19;;;16.85;56.93
56514;BME280;62152;52.078;8.414;2023-02-13T18:45:53;102126.41;;;16.85;57.29
56514;BME280;62152;52.078;8.414;2023-02-13T18:49:54;102134.63;;;16.85;56.96
56514;BME280;62152;52.078;8.414;2023-02-13T18:53:55;102131.88;;;16.85;57.80
56514;BME280;62152;52.078;8.414;2023-02-13T18:57:56;102122.03;;;16.84;57.31
56514;BME280;62152;52.078;8.414;2023-02-13T19:01:58;102125.59;;;16.84;57.21
56514;BME280;62152;52.078;8.414;2023-02-13T19:06:03;102130.25;;;16.84;57.53
56514;BME280;62152;52.078;8.414;2023-02-13T19:10:06;102124.78;;;16.84;57.03
56514;BME280;62152;52.078;8.414;2023-02-13T19:14:07;102139.28;;;16.84;57.21
56514;BME280;62152;52.078;8.414;2023-02-13T19:18:09;102126.72;;;16.83;57.38
56514;BME280;62152;52.078;8.414;2023-02-13T19:22:10;102122.03;;;16.84;56.97
56514;BME280;62152;52.078;8.414;2023-02-13T19:26:13;102125.91;;;16.83;57.22
56514;BME280;62152;52.078;8.414;2023-02-13T19:30:16;102123.16;;;16.83;56.94
56514;BME280;62152;52.078;8.414;2023-02-13T19:34:18;102132.19;;;16.83;57.38
56514;BME280;62152;52.078;8.414;2023-02-13T19:38:19;102134.13;;;16.83;56.90
56514;BME280;62152;52.078;8.414;2023-02-13T19:42:20;102128.66;;;16.83;56.87
56514;BME280;62152;52.078;8.414;2023-02-13T19:46:23;102128.66;;;16.83;56.88
56514;BME280;62152;52.078;8.414;2023-02-13T19:50:26;102125.91;;;16.83;57.18
56514;BME280;62152;52.078;8.414;2023-02-13T19:54:27;102119.09;;;16.80;56.81
56514;BME280;62152;52.078;8.414;2023-02-13T19:58:29;102127.25;;;16.94;59.81
56514;BME280;62152;52.078;8.414;2023-02-13T20:02:30;102118.00;;;17.35;60.12
56514;BME280;62152;52.078;8.414;2023-02-13T20:06:34;102120.38;;;17.50;60.19
56514;BME280;62152;52.078;8.414;2023-02-13T20:10:36;102121.19;;;17.50;60.61
56514;BME280;62152;52.078;8.414;2023-02-13T20:14:37;102120.41;;;17.59;61.22
56514;BME280;62152;52.078;8.414;2023-02-13T20:18:38;102115.72;;;17.59;60.67
56514;BME280;62152;52.078;8.414;2023-02-13T20:22:41;102123.94;;;17.59;60.09
56514;BME280;62152;52.078;8.414;2023-02-13T20:26:42;102124.28;;;17.58;60.27
56514;BME280;62152;52.078;8.414;2023-02-13T20:30:43;102119.88;;;17.57;60.67
56514;BME280;62152;52.078;8.414;2023-02-13T20:34:43;102121.53;;;17.58;60.36
56514;BME280;62152;52.078;8.414;2023-02-13T20:38:47;102108.78;;;17.62;60.15
56514;BME280;62152;52.078;8.414;2023-02-13T20:42:48;102112.97;;;17.59;60.66
56514;BME280;62152;52.078;8.414;2023-02-13T20:46:49;102109.59;;;17.62;60.51
56514;BME280;62152;52.078;8.414;2023-02-13T20:50:56;102100.22;;;17.63;60.90
56514;BME280;62152;52.078;8.414;2023-02-13T20:54:58;102103.63;;;17.60;60.92
56514;BME280;62152;52.078;8.414;2023-02-13T20:59:00;102104.09;;;17.62;60.42
56514;BME280;62152;52.078;8.414;2023-02-13T21:03:01;102100.53;;;17.62;60.41
56514;BME280;62152;52.078;8.414;2023-02-13T21:07:01;102102.97;;;17.63;60.43
56514;BME280;62152;52.078;8.414;2023-02-13T21:11:06;102088.63;;;17.66;60.59
56514;BME280;62152;52.078;8.414;2023-02-13T21:15:08;102094.44;;;17.65;60.46
56514;BME280;62152;52.078;8.414;2023-02-13T21:19:12;102101.69;;;17.69;60.05
56514;BME280;62152;52.078;8.414;2023-02-13T21:23:15;102109.44;;;17.67;60.54
56514;BME280;62152;52.078;8.414;2023-02-13T21:27:17;102098.97;;;17.69;60.23
56514;BME280;62152;52.078;8.414;2023-02-13T21:31:20;102110.25;;;17.68;60.42
56514;BME280;62152;52.078;8.414;2023-02-13T21:35:23;102119.19;;;17.73;59.92
56514;BME280;62152;52.078;8.414;2023-02-13T21:39:24;102107.19;;;17.69;60.36